createdAt,value
2023-07-24T00:02:00.414Z,16.20
2023-07-24T00:04:26.847Z,16.17
2023-07-24T00:06:53.300Z,16.40
2023-07-24T00:09:19.950Z,16.33
2023-07-24T00:11:46.359Z,16.16
2023-07-24T00:14:12.776Z,16.17
2023-07-24T00:16:39.230Z,16.31
2023-07-24T00:19:05.676Z,16.37
2023-07-24T00:21:32.336Z,16.21
2023-07-24T00:23:58.757Z,16.16
2023-07-24T00:26:25.220Z,16.20
2023-07-24T00:28:51.715Z,16.45
2023-07-24T00:31:18.228Z,16.25
2023-07-24T00:33:44.931Z,16.16
2023-07-24T00:36:11.342Z,16.20
2023-07-24T00:38:37.734Z,16.38
2023-07-24T00:41:04.362Z,16.23
2023-07-24T00:43:30.775Z,16.13
2023-07-24T00:45:57.224Z,16.10
2023-07-24T00:48:23.666Z,16.34
2023-07-24T00:50:50.089Z,16.25
2023-07-24T00:53:16.540Z,16.16
2023-07-24T00:55:42.945Z,16.14
2023-07-24T00:58:09.594Z,16.20
2023-07-24T01:00:36.006Z,16.33
2023-07-24T01:03:02.474Z,16.17
2023-07-24T01:05:28.921Z,16.13
2023-07-24T01:07:55.328Z,16.27
2023-07-24T01:10:21.761Z,16.41
2023-07-24T01:12:48.219Z,16.30
2023-07-24T01:15:14.653Z,16.12
2023-07-24T01:17:41.074Z,16.09
2023-07-24T01:20:07.488Z,16.31
2023-07-24T01:22:33.903Z,16.18
2023-07-24T01:25:00.338Z,16.10
2023-07-24T01:27:26.775Z,16.09
2023-07-24T01:29:53.185Z,16.34
2023-07-24T01:32:19.682Z,16.23
2023-07-24T01:34:46.101Z,16.13
2023-07-24T01:37:12.515Z,16.12
2023-07-24T01:39:38.949Z,16.23
2023-07-24T01:42:05.565Z,16.30
2023-07-24T01:44:31.989Z,16.12
2023-07-24T01:46:58.449Z,16.09
2023-07-24T01:49:24.898Z,16.16
2023-07-24T01:51:51.324Z,16.14
2023-07-24T01:54:17.968Z,16.12
2023-07-24T01:56:44.386Z,16.06
2023-07-24T01:59:10.809Z,16.10
2023-07-24T02:01:37.300Z,16.33
2023-07-24T02:04:03.980Z,16.18
2023-07-24T02:06:30.591Z,16.05
2023-07-24T02:08:57.510Z,16.03
2023-07-24T02:11:23.943Z,16.24
2023-07-24T02:13:50.370Z,16.17
2023-07-24T02:16:17.050Z,16.07
2023-07-24T02:18:43.480Z,16.05
2023-07-24T02:21:10.088Z,16.27
2023-07-24T02:23:36.494Z,16.21
2023-07-24T02:26:02.884Z,16.05
2023-07-24T02:28:29.503Z,16.06
2023-07-24T02:30:55.934Z,16.18
2023-07-24T02:33:22.364Z,16.21
2023-07-24T02:35:49.255Z,16.10
2023-07-24T02:38:15.671Z,16.06
2023-07-24T02:40:42.085Z,16.02
2023-07-24T02:43:08.478Z,16.23
2023-07-24T02:45:35.133Z,16.12
2023-07-24T02:48:01.576Z,16.00
2023-07-24T02:50:28.250Z,16.03
2023-07-24T02:52:54.677Z,16.23
2023-07-24T02:55:21.095Z,16.16
2023-07-24T02:57:47.530Z,16.03
2023-07-24T03:00:13.925Z,16.03
2023-07-24T03:02:40.398Z,16.07
2023-07-24T03:05:06.863Z,16.23
2023-07-24T03:07:33.273Z,16.07
2023-07-24T03:09:59.672Z,15.99
2023-07-24T03:12:26.062Z,16.25
2023-07-24T03:14:52.478Z,16.30
2023-07-24T03:17:18.918Z,16.10
2023-07-24T03:19:45.550Z,16.00
2023-07-24T03:22:11.954Z,16.00
2023-07-24T03:24:38.623Z,16.17
2023-07-24T03:27:05.085Z,16.05
2023-07-24T03:29:31.763Z,15.99
2023-07-24T03:31:58.223Z,16.03
2023-07-24T03:34:24.635Z,16.21
2023-07-24T03:36:51.273Z,16.00
2023-07-24T03:39:17.680Z,16.02
2023-07-24T03:41:44.298Z,16.02
2023-07-24T03:44:10.723Z,16.17
2023-07-24T03:46:37.366Z,16.17
2023-07-24T03:49:03.799Z,15.99
2023-07-24T03:51:30.220Z,16.02
2023-07-24T03:53:56.634Z,16.17
2023-07-24T03:56:23.045Z,16.33
2023-07-24T03:58:49.465Z,16.07
2023-07-24T04:01:16.138Z,15.99
2023-07-24T04:03:42.817Z,16.07
2023-07-24T04:06:09.452Z,16.30
2023-07-24T04:08:35.865Z,16.05
2023-07-24T04:11:03.226Z,16.03
2023-07-24T04:13:29.665Z,16.00
2023-07-24T04:15:56.299Z,16.24
2023-07-24T04:18:22.737Z,16.14
2023-07-24T04:20:49.171Z,16.00
2023-07-24T04:23:15.612Z,15.97
2023-07-24T04:25:42.239Z,15.97
2023-07-24T04:28:08.870Z,16.12
2023-07-24T04:30:35.517Z,16.02
2023-07-24T04:33:02.274Z,16.03
2023-07-24T04:35:28.724Z,16.14
2023-07-24T04:37:55.156Z,16.24
2023-07-24T04:40:21.806Z,16.03
2023-07-24T04:42:48.229Z,16.00
2023-07-24T04:45:14.634Z,16.10
2023-07-24T04:47:41.131Z,16.18
2023-07-24T04:50:07.791Z,16.03
2023-07-24T04:52:34.418Z,15.97
2023-07-24T04:55:00.840Z,15.99
2023-07-24T04:57:27.518Z,16.31
2023-07-24T04:59:53.944Z,16.20
2023-07-24T05:02:20.379Z,16.00
2023-07-24T05:04:46.872Z,15.99
2023-07-24T05:07:13.512Z,16.24
2023-07-24T05:09:39.946Z,16.25
2023-07-24T05:12:06.596Z,16.02
2023-07-24T05:14:33.015Z,16.05
2023-07-24T05:16:59.435Z,16.23
2023-07-24T05:19:25.863Z,16.13
2023-07-24T05:21:52.469Z,15.95
2023-07-24T05:24:18.954Z,15.99
2023-07-24T05:26:45.443Z,15.99
2023-07-24T05:29:11.879Z,16.00
2023-07-24T05:31:38.340Z,15.99
2023-07-24T05:34:04.900Z,16.02
2023-07-24T05:36:31.836Z,16.02
2023-07-24T05:38:58.564Z,16.18
2023-07-24T05:41:25.190Z,16.16
2023-07-24T05:43:51.593Z,16.09
2023-07-24T05:46:18.101Z,16.05
2023-07-24T05:48:44.762Z,16.09
2023-07-24T05:51:11.182Z,16.12
2023-07-24T05:53:37.602Z,16.09
2023-07-24T05:56:04.029Z,16.17
2023-07-24T05:58:30.708Z,16.13
2023-07-24T06:00:57.132Z,16.13
2023-07-24T06:03:23.628Z,16.14
2023-07-24T06:05:50.356Z,16.16
2023-07-24T06:08:16.981Z,16.10
2023-07-24T06:10:43.407Z,16.23
2023-07-24T06:13:10.027Z,16.17
2023-07-24T06:15:36.432Z,16.10
2023-07-24T06:18:03.050Z,16.12
2023-07-24T06:20:29.520Z,16.21
2023-07-24T06:22:55.979Z,16.23
2023-07-24T06:25:22.407Z,16.18
2023-07-24T06:27:49.050Z,16.24
2023-07-24T06:30:16.643Z,16.17
2023-07-24T06:32:43.615Z,16.21
2023-07-24T06:35:10.428Z,16.18
2023-07-24T06:37:36.874Z,16.30
2023-07-24T06:40:03.318Z,16.33
2023-07-24T06:42:29.781Z,16.31
2023-07-24T06:44:56.211Z,16.31
2023-07-24T06:47:22.720Z,16.31
2023-07-24T06:49:49.230Z,16.38
2023-07-24T06:52:15.628Z,16.43
2023-07-24T06:54:42.257Z,16.27
2023-07-24T06:57:08.677Z,16.24
2023-07-24T06:59:35.123Z,16.21
2023-07-24T07:02:01.551Z,16.28
2023-07-24T07:04:28.193Z,16.33
2023-07-24T07:06:54.609Z,16.34
2023-07-24T07:09:21.021Z,16.31
2023-07-24T07:11:47.450Z,16.17
2023-07-24T07:14:13.911Z,16.18
2023-07-24T07:16:40.387Z,16.30
2023-07-24T07:19:06.845Z,16.21
2023-07-24T07:21:33.294Z,16.34
2023-07-24T07:23:59.748Z,16.38
2023-07-24T07:26:26.226Z,16.24
2023-07-24T07:28:52.652Z,16.23
2023-07-24T07:31:19.374Z,16.14
2023-07-24T07:33:45.843Z,16.13
2023-07-24T07:36:12.277Z,16.12
2023-07-24T07:38:38.734Z,16.21
2023-07-24T07:41:05.123Z,16.07
2023-07-24T07:43:31.540Z,16.27
2023-07-24T07:45:57.956Z,16.17
2023-07-24T07:48:24.387Z,16.16
2023-07-24T07:50:50.804Z,16.17
2023-07-24T07:53:17.265Z,16.17
2023-07-24T07:55:43.676Z,16.21
2023-07-24T07:58:10.115Z,16.18
2023-07-24T08:00:36.573Z,16.13
2023-07-24T08:03:03.087Z,16.16
2023-07-24T08:05:29.569Z,16.20
2023-07-24T08:07:55.999Z,16.10
2023-07-24T08:10:22.466Z,16.14
2023-07-24T08:12:49.101Z,16.45
2023-07-24T08:15:15.550Z,16.17
2023-07-24T08:17:42.074Z,16.06
2023-07-24T08:20:08.559Z,16.09
2023-07-24T08:22:35.212Z,16.17
2023-07-24T08:25:01.731Z,16.40
2023-07-24T08:27:28.192Z,16.33
2023-07-24T08:29:54.804Z,16.20
2023-07-24T08:32:21.383Z,16.28
2023-07-24T08:34:48.258Z,16.47
2023-07-24T08:37:14.718Z,16.58
2023-07-24T08:39:41.151Z,16.33
2023-07-24T08:42:07.553Z,16.31
2023-07-24T08:44:34.195Z,16.53
2023-07-24T08:47:00.720Z,16.41
2023-07-24T08:49:27.220Z,16.38
2023-07-24T08:51:53.640Z,16.45
2023-07-24T08:54:20.092Z,16.43
2023-07-24T08:56:46.508Z,16.37
2023-07-24T08:59:12.937Z,16.31
2023-07-24T09:01:39.365Z,16.30
2023-07-24T09:04:05.941Z,16.38
2023-07-24T09:06:32.836Z,16.23
2023-07-24T09:08:59.636Z,16.33
2023-07-24T09:11:26.045Z,16.34
2023-07-24T09:13:55.427Z,16.28
2023-07-24T09:16:22.120Z,16.33
2023-07-24T09:21:25.711Z,16.41
2023-07-24T09:23:52.164Z,16.55
2023-07-24T09:26:18.562Z,16.40
2023-07-24T09:28:44.983Z,16.37
2023-07-24T09:31:11.487Z,16.27
2023-07-24T09:33:38.053Z,16.37
2023-07-24T09:36:04.457Z,16.37
2023-07-24T09:38:30.892Z,16.35
2023-07-24T09:40:57.316Z,16.33
2023-07-24T09:43:38.128Z,16.14
2023-07-24T09:46:05.990Z,16.17
2023-07-24T09:51:01.915Z,16.44
2023-07-24T09:53:28.378Z,16.31
2023-07-24T09:55:54.795Z,16.55
2023-07-24T09:58:21.208Z,16.35
2023-07-24T10:00:47.637Z,16.41
2023-07-24T10:03:14.105Z,16.31
2023-07-24T10:05:40.743Z,16.27
2023-07-24T10:08:07.170Z,16.37
2023-07-24T10:10:33.556Z,16.35
2023-07-24T10:13:00.178Z,16.33
2023-07-24T10:15:26.801Z,16.35
2023-07-24T10:17:53.278Z,16.44
2023-07-24T10:20:19.715Z,16.51
2023-07-24T10:22:46.153Z,16.25
2023-07-24T10:25:12.857Z,16.25
2023-07-24T10:27:39.454Z,16.34
2023-07-24T10:30:18.625Z,16.35
2023-07-24T10:32:55.191Z,16.30
2023-07-24T10:35:22.175Z,16.30
2023-07-24T10:37:48.809Z,16.45
2023-07-24T10:40:15.456Z,16.33
2023-07-24T10:42:41.901Z,16.31
2023-07-24T10:45:08.532Z,16.38
2023-07-24T10:47:34.980Z,16.23
2023-07-24T10:50:01.409Z,16.38
2023-07-24T10:52:27.842Z,16.37
2023-07-24T10:54:54.273Z,16.43
2023-07-24T10:57:20.692Z,16.48
2023-07-24T10:59:47.107Z,16.37
2023-07-24T11:02:13.556Z,16.23
2023-07-24T11:04:40.034Z,16.38
2023-07-24T11:07:06.727Z,16.35
2023-07-24T11:09:33.154Z,16.34
2023-07-24T11:11:59.566Z,16.24
2023-07-24T11:14:25.973Z,16.31
2023-07-24T11:16:52.514Z,16.33
2023-07-24T11:19:18.984Z,16.34
2023-07-24T11:21:45.423Z,16.33
2023-07-24T11:24:11.829Z,16.24
2023-07-24T11:26:39.322Z,16.40
2023-07-24T11:29:07.865Z,16.37
2023-07-24T11:31:34.576Z,16.43
2023-07-24T11:34:01.290Z,16.23
2023-07-24T11:36:27.950Z,16.23
2023-07-24T11:38:54.356Z,16.25
2023-07-24T11:41:20.778Z,16.16
2023-07-24T11:43:47.194Z,16.28
2023-07-24T11:46:13.857Z,16.23
2023-07-24T11:48:40.292Z,16.16
2023-07-24T11:51:06.708Z,16.13
2023-07-24T11:53:33.122Z,16.16
2023-07-24T11:55:59.537Z,16.21
2023-07-24T11:58:25.932Z,16.30
2023-07-24T12:00:52.997Z,16.20
2023-07-24T12:03:19.560Z,16.34
2023-07-24T12:05:48.609Z,16.28
2023-07-24T12:08:16.810Z,16.28
2023-07-24T12:10:43.227Z,16.23
2023-07-24T12:13:09.666Z,16.14
2023-07-24T12:15:36.420Z,16.20
2023-07-24T12:18:05.299Z,16.51
2023-07-24T12:20:31.997Z,16.50
2023-07-24T12:22:58.527Z,16.38
2023-07-24T12:25:25.000Z,16.20
2023-07-24T12:27:51.441Z,16.17
2023-07-24T12:30:17.839Z,16.20
2023-07-24T12:32:44.310Z,16.21
2023-07-24T12:35:10.746Z,16.17
2023-07-24T12:37:37.166Z,16.21
2023-07-24T12:40:03.596Z,16.37
2023-07-24T12:42:30.014Z,16.35
2023-07-24T12:44:58.955Z,16.48
2023-07-24T12:47:25.760Z,16.50
2023-07-24T12:49:52.289Z,16.67
2023-07-24T12:52:18.752Z,16.61
2023-07-24T12:55:00.155Z,16.55
2023-07-24T12:57:28.393Z,16.34
2023-07-24T12:59:54.804Z,16.34
2023-07-24T13:02:21.262Z,16.24
2023-07-24T13:04:47.712Z,16.33
2023-07-24T13:07:14.132Z,16.41
2023-07-24T13:09:40.784Z,16.57
2023-07-24T13:12:07.215Z,16.37
2023-07-24T13:14:33.639Z,16.57
2023-07-24T13:17:00.087Z,16.28
2023-07-24T13:19:26.537Z,16.30
2023-07-24T13:21:52.939Z,16.27
2023-07-24T13:24:19.406Z,16.48
2023-07-24T13:26:45.859Z,16.38
2023-07-24T13:29:12.288Z,16.31
2023-07-24T13:31:38.702Z,16.41
2023-07-24T13:34:05.138Z,16.45
2023-07-24T13:36:31.705Z,16.35
2023-07-24T13:38:58.700Z,16.35
2023-07-24T13:41:25.133Z,16.33
2023-07-24T13:43:51.567Z,16.30
2023-07-24T13:46:18.069Z,16.25
2023-07-24T13:48:44.536Z,16.38
2023-07-24T13:51:10.933Z,16.51
2023-07-24T13:53:37.369Z,16.37
2023-07-24T13:56:03.799Z,16.38
2023-07-24T13:58:30.244Z,16.41
2023-07-24T14:00:56.651Z,16.45
2023-07-24T14:03:23.372Z,16.43
2023-07-24T14:05:49.843Z,16.54
2023-07-24T14:08:16.305Z,16.27
2023-07-24T14:10:42.733Z,16.43
2023-07-24T14:13:09.160Z,16.50
2023-07-24T14:15:35.641Z,16.25
2023-07-24T14:18:02.121Z,16.30
2023-07-24T14:20:28.581Z,16.25
2023-07-24T14:22:55.238Z,16.20
2023-07-24T14:25:21.688Z,16.12
2023-07-24T14:27:48.110Z,16.18
2023-07-24T14:30:14.747Z,16.35
2023-07-24T14:32:41.734Z,16.34
2023-07-24T14:35:08.386Z,16.28
2023-07-24T14:37:34.825Z,16.23
2023-07-24T14:40:01.270Z,16.25
2023-07-24T14:42:27.694Z,16.16
2023-07-24T14:44:54.146Z,16.27
2023-07-24T14:47:20.556Z,16.20
2023-07-24T14:49:46.976Z,16.16
2023-07-24T14:52:13.675Z,16.16
2023-07-24T14:54:40.180Z,16.20
2023-07-24T14:57:14.770Z,16.18
2023-07-24T14:59:50.967Z,16.20
2023-07-24T15:02:17.408Z,16.21
2023-07-24T15:04:43.846Z,16.23
2023-07-24T15:07:10.297Z,16.27
2023-07-24T15:09:36.718Z,16.18
2023-07-24T15:12:03.182Z,16.28
2023-07-24T15:14:29.870Z,16.20
2023-07-24T15:16:56.284Z,16.17
2023-07-24T15:19:22.696Z,16.37
2023-07-24T15:21:49.104Z,16.34
2023-07-24T15:24:15.570Z,16.37
2023-07-24T15:26:41.979Z,16.23
2023-07-24T15:29:08.424Z,16.28
2023-07-24T15:31:35.042Z,16.30
2023-07-24T15:34:01.476Z,16.23
2023-07-24T15:36:27.883Z,16.18
2023-07-24T15:38:54.313Z,16.30
2023-07-24T15:41:20.770Z,16.23
2023-07-24T15:43:47.249Z,16.18
2023-07-24T15:46:15.301Z,16.23
2023-07-24T15:48:44.196Z,16.23
2023-07-24T15:51:10.594Z,16.23
2023-07-24T15:53:37.008Z,16.34
2023-07-24T15:56:03.412Z,16.20
2023-07-24T15:58:29.824Z,16.17
2023-07-24T16:00:56.315Z,16.16
2023-07-24T16:03:23.102Z,16.20
2023-07-24T16:05:49.576Z,16.23
2023-07-24T16:08:16.042Z,16.18
2023-07-24T16:10:42.484Z,16.21
2023-07-24T16:13:08.901Z,16.21
2023-07-24T16:18:06.268Z,16.21
2023-07-24T16:20:35.389Z,16.23
2023-07-24T16:23:02.222Z,16.28
2023-07-24T16:25:28.840Z,16.27
2023-07-24T16:27:55.435Z,16.24
2023-07-24T16:30:22.260Z,16.25
2023-07-24T16:32:50.071Z,16.28
2023-07-24T16:35:17.080Z,16.27
2023-07-24T16:37:43.588Z,16.30
2023-07-24T16:40:10.034Z,16.30
2023-07-24T16:42:36.441Z,16.31
2023-07-24T16:45:02.837Z,16.31
2023-07-24T16:47:29.361Z,16.34
2023-07-24T16:49:56.200Z,16.37
2023-07-24T16:52:22.594Z,16.37
2023-07-24T16:54:49.043Z,16.37
2023-07-24T16:57:15.435Z,16.34
2023-07-24T16:59:42.072Z,16.28
2023-07-24T17:02:08.518Z,16.31
2023-07-24T17:04:34.927Z,16.33
2023-07-24T17:07:01.361Z,16.38
2023-07-24T17:09:27.793Z,16.33
2023-07-24T17:11:54.211Z,16.40
2023-07-24T17:14:20.636Z,16.35
2023-07-24T17:16:47.297Z,16.31
2023-07-24T17:19:13.756Z,16.34
2023-07-24T17:21:40.417Z,16.35
2023-07-24T17:24:06.850Z,16.33
2023-07-24T17:26:33.274Z,16.33
2023-07-24T17:28:59.882Z,16.28
2023-07-24T17:31:26.537Z,16.30
2023-07-24T17:33:52.988Z,16.28
2023-07-24T17:36:19.819Z,16.33
2023-07-24T17:38:46.490Z,16.28
2023-07-24T17:41:12.897Z,16.30
2023-07-24T17:43:39.540Z,16.37
2023-07-24T17:46:06.247Z,16.37
2023-07-24T17:48:32.682Z,16.30
2023-07-24T17:50:59.315Z,16.34
2023-07-24T17:53:25.732Z,16.30
2023-07-24T17:55:52.377Z,16.31
2023-07-24T17:58:18.788Z,16.35
2023-07-24T18:00:45.180Z,16.28
2023-07-24T18:03:11.840Z,16.25
2023-07-24T18:05:38.300Z,16.27
2023-07-24T18:08:04.905Z,16.27
2023-07-24T18:10:31.328Z,16.25
2023-07-24T18:12:57.984Z,16.24
2023-07-24T18:15:24.403Z,16.35
2023-07-24T18:17:51.119Z,16.24
2023-07-24T18:20:17.806Z,16.27
2023-07-24T18:22:44.213Z,16.27
2023-07-24T18:25:10.645Z,16.27
2023-07-24T18:27:37.071Z,16.24
2023-07-24T18:30:03.707Z,16.25
2023-07-24T18:32:30.128Z,16.30
2023-07-24T18:34:56.612Z,16.30
2023-07-24T18:37:23.267Z,16.34
2023-07-24T18:39:49.701Z,16.38
2023-07-24T18:42:16.863Z,16.24
2023-07-24T18:44:43.634Z,16.41
2023-07-24T18:47:10.055Z,16.27
2023-07-24T18:49:36.694Z,16.21
2023-07-24T18:52:03.128Z,16.45
2023-07-24T18:54:29.770Z,16.27
2023-07-24T18:56:56.199Z,16.25
2023-07-24T18:59:22.618Z,16.23
2023-07-24T19:01:49.170Z,16.23
2023-07-24T19:04:15.642Z,16.25
2023-07-24T19:06:42.135Z,16.30
2023-07-24T19:09:08.792Z,16.31
2023-07-24T19:11:35.418Z,16.23
2023-07-24T19:14:01.827Z,16.24
2023-07-24T19:16:28.283Z,16.33
2023-07-24T19:18:54.784Z,16.25
2023-07-24T19:21:21.201Z,16.48
2023-07-24T19:23:47.595Z,16.43
2023-07-24T19:26:13.999Z,16.33
2023-07-24T19:28:40.398Z,16.43
2023-07-24T19:31:06.826Z,16.28
2023-07-24T19:33:33.295Z,16.31
2023-07-24T19:35:59.935Z,16.30
2023-07-24T19:38:26.366Z,16.61
2023-07-24T19:40:52.984Z,16.33
2023-07-24T19:43:19.720Z,16.35
2023-07-24T19:45:46.173Z,16.33
2023-07-24T19:48:12.686Z,16.54
2023-07-24T19:50:39.332Z,16.47
2023-07-24T19:53:05.746Z,16.35
2023-07-24T19:55:32.810Z,16.20
2023-07-24T19:57:59.208Z,16.57
2023-07-24T20:00:28.398Z,16.45
2023-07-24T20:02:55.808Z,16.55
2023-07-24T20:05:22.526Z,16.48
2023-07-24T20:07:48.928Z,16.37
2023-07-24T20:10:15.348Z,16.41
2023-07-24T20:12:41.776Z,16.48
2023-07-24T20:15:08.170Z,16.37
2023-07-24T20:17:34.814Z,16.35
2023-07-24T20:20:01.264Z,16.34
2023-07-24T20:22:27.913Z,16.38
2023-07-24T20:24:54.409Z,16.43
2023-07-24T20:27:21.115Z,16.40
2023-07-24T20:29:47.544Z,16.53
2023-07-24T20:32:14.203Z,16.58
2023-07-24T20:34:40.622Z,16.43
2023-07-24T20:37:07.031Z,16.50
2023-07-24T20:39:33.459Z,16.64
2023-07-24T20:42:02.512Z,16.44
2023-07-24T20:44:28.939Z,16.40
2023-07-24T20:46:55.370Z,16.61
2023-07-24T20:49:21.794Z,16.51
2023-07-24T20:51:48.430Z,16.50
2023-07-24T20:54:14.838Z,16.50
2023-07-24T20:56:41.243Z,16.60
2023-07-24T20:59:07.652Z,16.44
2023-07-24T21:01:34.410Z,16.54
2023-07-24T21:04:00.993Z,16.53
2023-07-24T21:06:27.420Z,16.48
2023-07-24T21:08:53.883Z,16.34
2023-07-24T21:11:20.297Z,16.41
2023-07-24T21:13:46.957Z,16.57
2023-07-24T21:16:13.422Z,16.53
2023-07-24T21:18:39.847Z,16.55
2023-07-24T21:21:08.426Z,16.53
2023-07-24T21:23:35.067Z,16.54
2023-07-24T21:26:01.702Z,16.67
2023-07-24T21:28:28.113Z,16.55
2023-07-24T21:30:54.759Z,16.43
2023-07-24T21:33:21.209Z,16.57
2023-07-24T21:35:47.831Z,16.61
2023-07-24T21:38:14.648Z,16.65
2023-07-24T21:40:41.648Z,16.55
2023-07-24T21:43:08.068Z,16.55
2023-07-24T21:45:34.723Z,16.50
2023-07-24T21:48:01.370Z,16.64
2023-07-24T21:50:27.829Z,16.65
2023-07-24T21:52:54.441Z,16.53
2023-07-24T21:55:20.859Z,16.45
2023-07-24T21:57:47.255Z,16.45
2023-07-24T22:00:13.678Z,16.58
2023-07-24T22:02:40.147Z,16.53
2023-07-24T22:05:06.618Z,16.48
2023-07-24T22:07:33.247Z,16.53
2023-07-24T22:09:59.807Z,16.57
2023-07-24T22:12:26.463Z,16.51
2023-07-24T22:14:52.882Z,16.60
2023-07-24T22:17:19.293Z,16.57
2023-07-24T22:19:45.724Z,16.43
2023-07-24T22:22:12.145Z,16.60
2023-07-24T22:24:38.572Z,16.53
2023-07-24T22:27:05.003Z,16.60
2023-07-24T22:29:31.639Z,16.44
2023-07-24T22:31:58.279Z,16.58
2023-07-24T22:34:24.720Z,16.58
2023-07-24T22:36:51.148Z,16.51
2023-07-24T22:39:17.589Z,16.51
2023-07-24T22:41:44.014Z,16.60
2023-07-24T22:44:10.449Z,16.53
2023-07-24T22:46:37.017Z,16.55
2023-07-24T22:49:03.568Z,16.55
2023-07-24T22:51:30.280Z,16.48
2023-07-24T22:53:56.928Z,16.47
2023-07-24T22:56:23.366Z,16.43
2023-07-24T22:58:50.029Z,16.53
2023-07-24T23:01:16.522Z,16.51
2023-07-24T23:03:43.026Z,16.50
2023-07-24T23:06:09.547Z,16.50
2023-07-24T23:08:36.194Z,16.53
2023-07-24T23:11:02.836Z,16.53
2023-07-24T23:13:29.296Z,16.62
2023-07-24T23:15:55.940Z,16.58
2023-07-24T23:18:22.356Z,16.55
2023-07-24T23:20:48.747Z,16.45
2023-07-24T23:23:15.186Z,16.54
2023-07-24T23:25:41.838Z,16.64
2023-07-24T23:28:08.271Z,16.55
2023-07-24T23:30:34.931Z,16.58
2023-07-24T23:33:01.385Z,16.54
2023-07-24T23:35:27.870Z,16.60
2023-07-24T23:37:54.301Z,16.40
2023-07-24T23:40:20.723Z,16.55
2023-07-24T23:42:47.382Z,16.50
2023-07-24T23:45:13.817Z,16.48
2023-07-24T23:47:40.280Z,16.53
2023-07-24T23:50:06.711Z,16.57
2023-07-24T23:52:33.129Z,16.55
2023-07-24T23:54:59.534Z,16.57
2023-07-24T23:57:25.970Z,16.54
2023-07-24T23:59:52.397Z,16.48
